createdAt,value
2022-08-18T00:01:33.142Z,33.45
2022-08-18T00:04:03.423Z,33.06
2022-08-18T00:06:38.218Z,33.52
2022-08-18T00:09:06.636Z,33.14
2022-08-18T00:11:41.113Z,33.12
2022-08-18T00:14:22.722Z,33.35
2022-08-18T00:16:51.634Z,32.90
2022-08-18T00:19:18.955Z,32.94
2022-08-18T00:21:46.182Z,33.17
2022-08-18T00:24:13.432Z,33.23
2022-08-18T00:26:40.840Z,33.54
2022-08-18T00:29:08.657Z,33.86
2022-08-18T00:31:36.032Z,33.61
2022-08-18T00:34:03.332Z,33.91
2022-08-18T00:36:32.538Z,33.83
2022-08-18T00:38:59.835Z,33.88
2022-08-18T00:41:27.736Z,33.31
2022-08-18T00:43:58.407Z,33.99
2022-08-18T00:46:27.852Z,34.02
2022-08-18T00:48:55.632Z,34.03
2022-08-18T00:51:29.625Z,34.31
2022-08-18T00:54:00.835Z,33.98
2022-08-18T00:56:38.259Z,34.30
2022-08-18T00:59:16.578Z,34.58
2022-08-18T01:01:44.835Z,34.38
2022-08-18T01:04:18.574Z,34.74
2022-08-18T01:06:51.513Z,34.60
2022-08-18T01:09:19.078Z,34.37
2022-08-18T01:11:46.671Z,34.62
2022-08-18T01:14:16.150Z,34.26
2022-08-18T01:17:01.746Z,34.67
2022-08-18T01:19:47.472Z,34.66
2022-08-18T01:22:19.276Z,34.75
2022-08-18T01:25:05.283Z,34.80
2022-08-18T01:27:34.217Z,34.80
2022-08-18T01:30:10.564Z,34.89
2022-08-18T01:32:39.439Z,34.87
2022-08-18T01:35:09.034Z,34.92
2022-08-18T01:37:37.271Z,35.04
2022-08-18T01:41:23.342Z,34.97
2022-08-18T01:42:55.979Z,35.19
2022-08-18T01:45:24.329Z,34.83
2022-08-18T01:47:51.541Z,35.08
2022-08-18T01:50:18.947Z,35.13
2022-08-18T01:52:46.240Z,35.39
2022-08-18T01:55:14.759Z,35.23
2022-08-18T01:57:43.278Z,35.57
2022-08-18T02:00:12.483Z,35.38
2022-08-18T02:02:40.241Z,35.15
2022-08-18T02:05:11.371Z,35.31
2022-08-18T02:07:38.694Z,35.30
2022-08-18T02:10:12.270Z,35.38
2022-08-18T02:12:40.764Z,35.46
2022-08-18T02:15:08.412Z,35.20
2022-08-18T02:17:39.891Z,35.22
2022-08-18T02:20:08.707Z,35.43
2022-08-18T02:22:36.112Z,35.48
2022-08-18T02:25:03.871Z,35.92
2022-08-18T02:27:35.306Z,35.63
2022-08-18T02:30:05.100Z,35.59
2022-08-18T02:32:33.097Z,35.65
2022-08-18T02:35:00.753Z,35.72
2022-08-18T02:37:28.522Z,35.60
2022-08-18T02:39:55.758Z,35.72
2022-08-18T02:42:23.242Z,35.45
2022-08-18T02:44:50.658Z,35.74
2022-08-18T02:47:21.566Z,36.06
2022-08-18T02:49:49.448Z,35.75
2022-08-18T02:52:17.486Z,35.95
2022-08-18T02:54:44.796Z,35.89
2022-08-18T02:57:12.675Z,35.89
2022-08-18T02:59:40.401Z,35.51
2022-08-18T03:02:08.696Z,36.02
2022-08-18T03:04:36.231Z,35.57
2022-08-18T03:07:05.768Z,35.67
2022-08-18T03:09:33.460Z,35.73
2022-08-18T03:12:00.747Z,35.66
2022-08-18T03:14:28.347Z,35.56
2022-08-18T03:16:55.687Z,35.39
2022-08-18T03:19:24.091Z,35.52
2022-08-18T03:21:51.612Z,35.53
2022-08-18T03:24:22.860Z,35.35
2022-08-18T03:26:52.365Z,35.55
2022-08-18T03:29:20.146Z,35.10
2022-08-18T03:31:48.925Z,34.99
2022-08-18T03:34:19.860Z,35.27
2022-08-18T03:36:48.059Z,35.13
2022-08-18T03:39:15.425Z,34.88
2022-08-18T03:42:00.171Z,34.95
2022-08-18T03:44:32.929Z,35.21
2022-08-18T03:47:03.142Z,35.00
2022-08-18T03:49:31.574Z,35.10
2022-08-18T03:52:01.043Z,35.20
2022-08-18T03:54:29.380Z,34.56
2022-08-18T03:59:44.266Z,34.37
2022-08-18T04:02:11.893Z,34.30
2022-08-18T04:04:42.962Z,34.50
2022-08-18T04:07:16.814Z,34.27
2022-08-18T04:09:44.901Z,34.15
2022-08-18T04:12:16.741Z,34.02
2022-08-18T04:14:47.884Z,34.51
2022-08-18T04:17:16.658Z,34.28
2022-08-18T04:19:43.982Z,34.15
2022-08-18T04:22:17.254Z,34.15
2022-08-18T04:24:46.509Z,34.05
2022-08-18T04:27:13.804Z,33.63
2022-08-18T04:29:41.531Z,33.82
2022-08-18T04:32:08.786Z,34.09
2022-08-18T04:34:36.042Z,33.73
2022-08-18T04:37:03.961Z,34.11
2022-08-18T04:39:31.426Z,34.08
2022-08-18T04:41:59.489Z,33.70
2022-08-18T04:44:26.743Z,34.17
2022-08-18T04:46:54.860Z,33.75
2022-08-18T04:49:26.200Z,33.87
2022-08-18T04:52:30.728Z,34.18
2022-08-18T04:55:01.779Z,34.48
2022-08-18T04:57:33.622Z,34.53
2022-08-18T05:00:01.531Z,34.69
2022-08-18T05:02:28.992Z,34.32
2022-08-18T05:04:56.303Z,34.17
2022-08-18T05:07:23.664Z,34.01
2022-08-18T05:09:55.104Z,33.57
2022-08-18T05:12:26.016Z,33.58
2022-08-18T05:14:57.181Z,33.94
2022-08-18T05:17:29.993Z,34.21
2022-08-18T05:20:00.799Z,34.09
2022-08-18T05:22:30.878Z,34.11
2022-08-18T05:27:44.376Z,34.18
2022-08-18T05:30:12.092Z,33.89
2022-08-18T05:32:48.147Z,34.38
2022-08-18T05:35:20.352Z,34.13
2022-08-18T05:37:47.745Z,34.05
2022-08-18T05:40:15.647Z,33.80
2022-08-18T05:42:43.629Z,34.15
2022-08-18T05:45:13.126Z,34.06
2022-08-18T05:47:40.468Z,34.15
2022-08-18T05:50:09.216Z,34.54
2022-08-18T05:52:39.197Z,34.26
2022-08-18T05:55:29.071Z,34.11
2022-08-18T05:58:00.220Z,34.56
2022-08-18T06:00:29.065Z,34.56
2022-08-18T06:03:19.794Z,34.40
2022-08-18T06:05:52.642Z,34.32
2022-08-18T06:08:23.593Z,34.26
2022-08-18T06:10:51.332Z,34.08
2022-08-18T06:13:20.676Z,33.70
2022-08-18T06:15:57.061Z,33.98
2022-08-18T06:18:24.276Z,34.07
2022-08-18T06:20:54.638Z,33.83
2022-08-18T06:23:40.722Z,33.91
2022-08-18T06:26:14.088Z,33.85
2022-08-18T06:28:49.345Z,33.62
2022-08-18T06:31:19.055Z,33.59
2022-08-18T06:34:01.059Z,33.23
2022-08-18T06:36:35.855Z,33.74
2022-08-18T06:39:07.780Z,32.74
2022-08-18T06:41:49.176Z,32.78
2022-08-18T06:44:36.023Z,32.00
2022-08-18T06:47:18.073Z,32.78
2022-08-18T06:49:49.093Z,32.32
2022-08-18T06:52:27.480Z,32.03
2022-08-18T06:54:56.253Z,31.79
2022-08-18T06:57:34.857Z,30.93
2022-08-18T07:00:07.022Z,30.77
2022-08-18T07:02:49.319Z,30.83
2022-08-18T07:05:27.065Z,31.26
2022-08-18T07:08:18.605Z,31.07
2022-08-18T07:10:48.006Z,30.41
2022-08-18T07:13:18.400Z,30.00
2022-08-18T07:15:48.246Z,29.87
2022-08-18T07:18:22.474Z,29.11
2022-08-18T07:20:54.467Z,29.39
2022-08-18T07:23:25.433Z,30.13
2022-08-18T07:25:59.685Z,28.43
2022-08-18T07:28:37.877Z,29.62
2022-08-18T07:31:27.603Z,29.82
2022-08-18T07:33:59.613Z,29.80
2022-08-18T07:36:29.297Z,29.80
2022-08-18T07:39:03.073Z,29.77
2022-08-18T07:41:41.057Z,30.87
2022-08-18T07:44:34.759Z,29.61
2022-08-18T07:47:04.966Z,28.78
2022-08-18T07:49:35.374Z,29.80
2022-08-18T07:52:35.927Z,29.48
2022-08-18T07:55:03.375Z,29.19
2022-08-18T07:57:42.052Z,29.44
2022-08-18T08:00:54.847Z,28.42
2022-08-18T08:03:30.673Z,29.24
2022-08-18T08:06:03.753Z,29.24
2022-08-18T08:08:43.467Z,29.10
2022-08-18T08:11:31.042Z,29.64
2022-08-18T08:14:20.644Z,28.67
2022-08-18T08:16:53.786Z,29.05
2022-08-18T08:19:42.588Z,29.77
2022-08-18T08:22:20.122Z,29.11
2022-08-18T08:24:50.400Z,29.07
2022-08-18T08:27:21.457Z,29.62
2022-08-18T08:29:57.212Z,29.36
2022-08-18T08:32:50.780Z,29.36
2022-08-18T08:35:49.362Z,28.74
2022-08-18T08:38:39.272Z,28.83
2022-08-18T08:41:08.559Z,29.11
2022-08-18T08:43:40.017Z,29.33
2022-08-18T08:46:17.812Z,29.91
2022-08-18T08:48:49.528Z,29.16
2022-08-18T08:51:24.235Z,28.31
2022-08-18T08:54:20.643Z,29.18
2022-08-18T08:56:50.441Z,28.99
2022-08-18T08:59:21.876Z,29.08
2022-08-18T09:02:32.180Z,29.05
2022-08-18T09:05:08.427Z,29.70
2022-08-18T09:07:38.333Z,29.32
2022-08-18T09:10:18.216Z,28.85
2022-08-18T09:13:04.286Z,29.14
2022-08-18T09:15:57.987Z,29.32
2022-08-18T09:18:44.922Z,29.14
2022-08-18T09:21:13.432Z,29.18
2022-08-18T09:23:42.509Z,29.24
2022-08-18T09:26:24.294Z,29.20
2022-08-18T09:28:59.589Z,29.47
2022-08-18T09:31:31.722Z,29.13
2022-08-18T09:34:18.288Z,29.38
2022-08-18T09:36:49.705Z,28.50
2022-08-18T09:39:53.819Z,29.12
2022-08-18T09:45:33.767Z,29.40
2022-08-18T09:48:20.741Z,29.12
2022-08-18T09:51:19.275Z,29.59
2022-08-18T09:53:46.619Z,29.53
2022-08-18T09:56:15.094Z,29.88
2022-08-18T09:58:50.011Z,29.86
2022-08-18T10:01:19.763Z,29.28
2022-08-18T10:04:12.184Z,29.15
2022-08-18T10:06:42.931Z,29.60
2022-08-18T10:09:26.711Z,29.20
2022-08-18T10:12:08.382Z,29.31
2022-08-18T10:14:55.367Z,29.45
2022-08-18T10:20:34.622Z,29.70
2022-08-18T10:23:02.103Z,29.13
2022-08-18T10:25:36.973Z,29.17
2022-08-18T10:28:06.074Z,29.20
2022-08-18T10:30:34.579Z,30.42
2022-08-18T10:33:17.194Z,29.73
2022-08-18T10:35:56.823Z,29.21
2022-08-18T10:38:30.747Z,29.89
2022-08-18T10:41:09.878Z,30.13
2022-08-18T10:46:39.623Z,30.01
2022-08-18T10:49:13.559Z,31.17
2022-08-18T10:52:04.204Z,29.91
2022-08-18T10:54:54.143Z,30.06
2022-08-18T10:57:37.207Z,29.81
2022-08-18T11:00:12.212Z,30.32
2022-08-18T11:03:50.109Z,29.57
2022-08-18T11:05:46.243Z,30.30
2022-08-18T11:08:15.762Z,29.66
2022-08-18T11:11:06.683Z,30.05
2022-08-18T11:13:44.755Z,29.82
2022-08-18T11:16:18.405Z,30.07
2022-08-18T11:18:52.994Z,30.72
2022-08-18T11:21:30.764Z,30.12
2022-08-18T11:24:07.379Z,30.97
2022-08-18T11:26:39.601Z,30.18
2022-08-18T11:29:22.357Z,29.14
2022-08-18T11:31:52.629Z,29.04
2022-08-18T11:34:25.895Z,29.18
2022-08-18T11:37:01.726Z,30.10
2022-08-18T11:45:08.031Z,29.03
2022-08-18T11:47:37.832Z,29.65
2022-08-18T11:50:08.980Z,29.60
2022-08-18T11:52:53.909Z,29.73
2022-08-18T11:55:28.848Z,29.75
2022-08-18T11:57:59.382Z,29.86
2022-08-18T12:00:45.752Z,29.14
2022-08-18T12:03:31.982Z,29.21
2022-08-18T12:06:01.219Z,29.32
2022-08-18T12:08:56.747Z,29.52
2022-08-18T12:11:29.960Z,29.90
2022-08-18T12:14:00.441Z,29.78
2022-08-18T12:16:47.809Z,29.14
2022-08-18T12:19:19.558Z,29.22
2022-08-18T12:21:52.201Z,29.84
2022-08-18T12:24:26.456Z,30.08
2022-08-18T12:27:00.845Z,29.66
2022-08-18T12:29:36.658Z,28.99
2022-08-18T12:32:18.143Z,29.39
2022-08-18T12:35:03.531Z,29.70
2022-08-18T12:37:58.533Z,29.45
2022-08-18T12:40:22.575Z,29.30
2022-08-18T12:42:50.114Z,29.31
2022-08-18T12:45:17.420Z,29.75
2022-08-18T12:47:45.892Z,29.90
2022-08-18T12:50:15.078Z,29.17
2022-08-18T12:52:44.141Z,29.81
2022-08-18T12:55:21.378Z,29.54
2022-08-18T12:57:53.406Z,29.34
2022-08-18T13:00:28.827Z,29.04
2022-08-18T13:02:57.427Z,29.56
2022-08-18T13:05:27.652Z,29.65
2022-08-18T13:08:04.371Z,29.16
2022-08-18T13:10:45.688Z,29.71
2022-08-18T13:13:19.862Z,29.48
2022-08-18T13:15:58.046Z,30.09
2022-08-18T13:18:28.770Z,29.76
2022-08-18T13:21:00.527Z,29.41
2022-08-18T13:23:28.515Z,29.33
2022-08-18T13:26:01.394Z,30.04
2022-08-18T13:28:33.414Z,29.68
2022-08-18T13:31:05.787Z,29.32
2022-08-18T13:33:53.690Z,29.16
2022-08-18T13:36:22.349Z,29.42
2022-08-18T13:38:54.665Z,29.30
2022-08-18T13:41:23.260Z,29.35
2022-08-18T13:43:52.216Z,29.58
2022-08-18T13:46:24.344Z,29.60
2022-08-18T13:49:03.141Z,29.21
2022-08-18T13:51:31.143Z,29.72
2022-08-18T13:54:18.722Z,29.89
2022-08-18T13:56:52.213Z,29.82
2022-08-18T13:59:21.842Z,29.19
2022-08-18T14:01:52.972Z,29.16
2022-08-18T14:04:22.537Z,28.46
2022-08-18T14:06:57.383Z,29.47
2022-08-18T14:09:36.298Z,29.27
2022-08-18T14:12:15.459Z,29.62
2022-08-18T14:14:49.394Z,28.75
2022-08-18T14:17:22.317Z,29.13
2022-08-18T14:20:10.488Z,29.35
2022-08-18T14:23:00.689Z,29.81
2022-08-18T14:25:46.663Z,29.81
2022-08-18T14:28:15.491Z,29.71
2022-08-18T14:30:54.182Z,29.49
2022-08-18T14:33:49.623Z,29.69
2022-08-18T14:36:10.936Z,29.38
2022-08-18T14:38:38.817Z,29.56
2022-08-18T14:41:08.280Z,29.40
2022-08-18T14:44:11.693Z,29.48
2022-08-18T14:46:30.226Z,29.48
2022-08-18T14:48:58.309Z,29.62
2022-08-18T14:51:27.324Z,29.23
2022-08-18T14:53:55.720Z,29.53
2022-08-18T14:56:28.324Z,30.07
2022-08-18T14:58:56.468Z,30.56
2022-08-18T15:01:24.599Z,29.96
2022-08-18T15:03:55.027Z,30.39
2022-08-18T15:06:23.156Z,29.84
2022-08-18T15:08:57.094Z,30.13
2022-08-18T15:11:25.182Z,29.88
2022-08-18T15:13:55.060Z,29.87
2022-08-18T15:16:27.155Z,29.49
2022-08-18T15:18:59.095Z,29.59
2022-08-18T15:21:44.933Z,29.88
2022-08-18T15:24:31.665Z,29.69
2022-08-18T15:27:03.280Z,29.61
2022-08-18T15:29:34.391Z,29.15
2022-08-18T15:32:05.652Z,29.48
2022-08-18T15:34:46.625Z,29.79
2022-08-18T15:37:20.233Z,29.24
2022-08-18T15:39:51.880Z,29.04
2022-08-18T15:42:23.665Z,29.49
2022-08-18T15:45:56.550Z,29.57
2022-08-18T15:48:28.692Z,29.46
2022-08-18T15:50:56.924Z,30.03
2022-08-18T15:53:30.072Z,29.73
2022-08-18T15:55:58.250Z,29.81
2022-08-18T15:58:31.452Z,29.49
2022-08-18T16:00:59.107Z,29.64
2022-08-18T16:03:28.257Z,29.45
2022-08-18T16:05:56.316Z,29.87
2022-08-18T16:08:24.981Z,29.33
2022-08-18T16:10:53.549Z,29.66
2022-08-18T16:13:21.021Z,29.82
2022-08-18T16:15:50.035Z,29.75
2022-08-18T16:18:18.746Z,29.58
2022-08-18T16:20:45.964Z,29.47
2022-08-18T16:23:13.913Z,29.85
2022-08-18T16:25:42.209Z,29.73
2022-08-18T16:28:09.981Z,30.44
2022-08-18T16:30:37.347Z,30.00
2022-08-18T16:33:05.605Z,29.92
2022-08-18T16:35:33.340Z,30.26
2022-08-18T16:38:04.923Z,30.11
2022-08-18T16:40:32.442Z,30.23
2022-08-18T16:43:00.684Z,29.98
2022-08-18T16:45:28.368Z,30.27
2022-08-18T16:47:55.959Z,29.96
2022-08-18T16:50:25.016Z,30.35
2022-08-18T16:52:52.505Z,30.52
2022-08-18T16:55:20.480Z,30.66
2022-08-18T16:58:06.177Z,30.59
2022-08-18T17:00:54.831Z,30.36
2022-08-18T17:03:42.133Z,30.01
2022-08-18T17:06:11.308Z,30.35
2022-08-18T17:08:38.705Z,30.29
2022-08-18T17:11:09.543Z,30.59
2022-08-18T17:13:37.613Z,30.11
2022-08-18T17:16:05.042Z,30.46
2022-08-18T17:18:32.400Z,30.71
2022-08-18T17:21:03.915Z,30.09
2022-08-18T17:23:31.805Z,30.13
2022-08-18T17:25:59.871Z,30.48
2022-08-18T17:28:36.585Z,30.54
2022-08-18T17:31:05.233Z,30.05
2022-08-18T17:33:33.816Z,30.24
2022-08-18T17:36:04.615Z,30.07
2022-08-18T17:38:36.386Z,30.33
2022-08-18T17:41:04.645Z,30.11
2022-08-18T17:43:33.256Z,30.33
2022-08-18T17:46:04.659Z,30.52
2022-08-18T17:48:38.301Z,29.90
2022-08-18T17:51:30.790Z,29.99
2022-08-18T17:54:01.114Z,29.47
2022-08-18T17:56:49.778Z,29.86
2022-08-18T17:59:45.506Z,30.01
2022-08-18T18:02:28.534Z,30.25
2022-08-18T18:04:59.145Z,30.28
2022-08-18T18:07:38.540Z,30.02
2022-08-18T18:10:08.307Z,29.86
2022-08-18T18:12:36.629Z,29.92
2022-08-18T18:15:13.845Z,29.84
2022-08-18T18:17:42.694Z,29.96
2022-08-18T18:20:15.901Z,30.31
2022-08-18T18:22:44.313Z,29.66
2022-08-18T18:25:13.011Z,29.69
2022-08-18T18:27:43.478Z,29.69
2022-08-18T18:30:19.238Z,29.24
2022-08-18T18:33:05.708Z,29.71
2022-08-18T18:35:54.045Z,29.73
2022-08-18T21:02:41.248Z,31.96
2022-08-18T21:05:10.671Z,31.33
2022-08-18T21:08:04.895Z,31.51
2022-08-18T21:10:32.866Z,31.56
2022-08-18T21:13:01.644Z,31.39
2022-08-18T21:15:30.753Z,31.74
2022-08-18T21:18:06.945Z,31.74
2022-08-18T21:20:34.845Z,31.65
2022-08-18T21:23:07.401Z,31.46
2022-08-18T21:25:35.297Z,31.59
2022-08-18T21:28:04.097Z,31.05
2022-08-18T21:30:32.032Z,31.39
2022-08-18T21:32:59.308Z,31.16
2022-08-18T21:35:34.244Z,31.06
2022-08-18T21:38:24.614Z,30.67
2022-08-18T21:40:56.175Z,31.03
2022-08-18T21:43:35.580Z,31.71
2022-08-18T21:46:03.598Z,31.92
2022-08-18T21:48:31.612Z,31.24
2022-08-18T21:51:01.402Z,31.30
2022-08-18T21:53:32.780Z,31.60
2022-08-18T21:56:01.528Z,31.19
2022-08-18T21:58:45.442Z,31.77
2022-08-18T22:01:20.564Z,31.27
2022-08-18T22:03:49.624Z,31.45
2022-08-18T22:06:28.270Z,31.74
2022-08-18T22:09:00.143Z,32.06
2022-08-18T22:12:01.029Z,31.61
2022-08-18T22:14:55.101Z,31.79
2022-08-18T22:17:43.367Z,31.75
2022-08-18T22:20:29.121Z,31.91
2022-08-18T22:23:24.194Z,31.44
2022-08-18T22:25:51.635Z,31.53
2022-08-18T22:28:23.095Z,31.60
2022-08-18T22:30:50.570Z,31.36
2022-08-18T22:33:17.904Z,31.39
2022-08-18T22:35:52.623Z,31.58
2022-08-18T22:38:19.888Z,31.71
2022-08-18T22:40:47.239Z,31.81
2022-08-18T22:43:14.644Z,31.48
2022-08-18T22:45:42.004Z,31.75
2022-08-18T22:48:09.460Z,32.08
2022-08-18T22:50:37.209Z,31.81
2022-08-18T22:53:04.451Z,32.12
2022-08-18T22:55:31.752Z,31.70
2022-08-18T22:57:59.191Z,31.92
2022-08-18T23:00:27.415Z,31.53
2022-08-18T23:02:55.275Z,31.85
2022-08-18T23:05:23.507Z,31.81
2022-08-18T23:07:51.020Z,31.93
2022-08-18T23:10:18.431Z,31.36
2022-08-18T23:12:47.273Z,31.59
2022-08-18T23:15:15.927Z,32.13
2022-08-18T23:17:43.577Z,31.37
2022-08-18T23:20:18.178Z,31.30
2022-08-18T23:22:47.790Z,31.73
2022-08-18T23:25:15.280Z,32.14
2022-08-18T23:27:43.184Z,32.19
2022-08-18T23:30:10.923Z,31.96
2022-08-18T23:32:38.335Z,31.84
2022-08-18T23:35:05.857Z,31.99
2022-08-18T23:37:33.064Z,32.11
2022-08-18T23:40:00.451Z,32.62
2022-08-18T23:42:27.912Z,32.21
2022-08-18T23:45:03.440Z,32.13
2022-08-18T23:47:31.069Z,32.75
2022-08-18T23:49:58.574Z,32.53
2022-08-18T23:52:25.871Z,32.24
2022-08-18T23:54:53.107Z,32.44
2022-08-18T23:57:20.587Z,32.47
2022-08-18T23:59:47.885Z,32.36
